sensor_id;sensor_type;location;lat;lon;timestamp;pressure;altitude;pressure_sealevel;temperature;humidity
66801;BME280;53703;50.326;19.122;2023-05-08T00:03:16;99655.30;;;19.00;35.16
66801;BME280;53703;50.326;19.122;2023-05-08T00:06:10;99656.87;;;18.99;35.01
66801;BME280;53703;50.326;19.122;2023-05-08T00:09:04;99661.51;;;19.08;35.13
66801;BME280;53703;50.326;19.122;2023-05-08T00:11:58;99663.45;;;19.05;35.09
66801;BME280;53703;50.326;19.122;2023-05-08T00:14:52;99664.60;;;19.06;35.26
66801;BME280;53703;50.326;19.122;2023-05-08T00:17:46;99665.23;;;19.03;34.95
66801;BME280;53703;50.326;19.122;2023-05-08T00:20:40;99662.19;;;19.07;34.96
66801;BME280;53703;50.326;19.122;2023-05-08T00:23:34;99666.48;;;19.06;35.55
66801;BME280;53703;50.326;19.122;2023-05-08T00:26:28;99665.23;;;19.08;35.50
66801;BME280;53703;50.326;19.122;2023-05-08T00:29:16;99666.40;;;19.01;35.11
66801;BME280;53703;50.326;19.122;2023-05-08T00:32:10;99669.58;;;19.08;35.32
66801;BME280;53703;50.326;19.122;2023-05-08T00:35:05;99671.67;;;19.11;34.80
66801;BME280;53703;50.326;19.122;2023-05-08T00:38:00;99668.50;;;19.03;34.86
66801;BME280;53703;50.326;19.122;2023-05-08T00:40:54;99668.79;;;19.06;35.34
66801;BME280;53703;50.326;19.122;2023-05-08T00:43:48;99671.96;;;19.08;34.71
66801;BME280;53703;50.326;19.122;2023-05-08T00:46:43;99667.25;;;18.96;34.66
66801;BME280;53703;50.326;19.122;2023-05-08T00:49:38;99674.34;;;18.98;35.02
66801;BME280;53703;50.326;19.122;2023-05-08T00:52:33;99673.42;;;18.99;35.10
66801;BME280;53703;50.326;19.122;2023-05-08T00:55:27;99673.39;;;19.05;34.73
66801;BME280;53703;50.326;19.122;2023-05-08T00:58:23;99672.73;;;18.85;34.48
66801;BME280;53703;50.326;19.122;2023-05-08T01:01:20;99670.95;;;18.89;34.56
66801;BME280;53703;50.326;19.122;2023-05-08T01:04:14;99669.49;;;18.89;34.49
66801;BME280;53703;50.326;19.122;2023-05-08T01:07:10;99663.28;;;18.98;34.50
66801;BME280;53703;50.326;19.122;2023-05-08T01:13:41;99676.31;;;19.02;34.62
66801;BME280;53703;50.326;19.122;2023-05-08T01:16:43;99677.29;;;19.06;34.75
66801;BME280;53703;50.326;19.122;2023-05-08T01:20:02;99677.09;;;19.08;34.92
66801;BME280;53703;50.326;19.122;2023-05-08T01:31:04;99687.27;;;18.97;34.70
66801;BME280;53703;50.326;19.122;2023-05-08T01:34:05;99689.63;;;19.01;34.80
66801;BME280;53703;50.326;19.122;2023-05-08T01:37:05;99694.45;;;18.97;34.86
66801;BME280;53703;50.326;19.122;2023-05-08T01:40:11;99693.45;;;18.96;35.10
66801;BME280;53703;50.326;19.122;2023-05-08T01:43:18;99691.42;;;19.05;35.09
66801;BME280;53703;50.326;19.122;2023-05-08T01:52:33;99687.95;;;18.96;35.36
66801;BME280;53703;50.326;19.122;2023-05-08T01:55:36;99692.80;;;18.97;35.27
66801;BME280;53703;50.326;19.122;2023-05-08T01:58:52;99691.66;;;18.93;35.30
66801;BME280;53703;50.326;19.122;2023-05-08T02:01:48;99691.06;;;18.93;35.11
66801;BME280;53703;50.326;19.122;2023-05-08T02:04:44;99690.35;;;18.87;35.28
66801;BME280;53703;50.326;19.122;2023-05-08T02:07:39;99691.90;;;18.91;35.49
66801;BME280;53703;50.326;19.122;2023-05-08T02:10:36;99692.93;;;18.87;35.38
66801;BME280;53703;50.326;19.122;2023-05-08T02:13:31;99693.58;;;18.78;35.12
66801;BME280;53703;50.326;19.122;2023-05-08T02:16:27;99692.46;;;18.91;35.12
66801;BME280;53703;50.326;19.122;2023-05-08T02:19:23;99704.09;;;18.95;35.12
66801;BME280;53703;50.326;19.122;2023-05-08T02:22:18;99702.22;;;18.78;34.97
66801;BME280;53703;50.326;19.122;2023-05-08T02:25:16;99701.36;;;18.88;34.85
66801;BME280;53703;50.326;19.122;2023-05-08T02:31:22;99700.39;;;18.93;34.74
66801;BME280;53703;50.326;19.122;2023-05-08T02:34:17;99706.72;;;19.01;34.74
66801;BME280;53703;50.326;19.122;2023-05-08T02:37:12;99705.92;;;18.97;34.86
66801;BME280;53703;50.326;19.122;2023-05-08T02:40:10;99708.99;;;18.91;35.18
66801;BME280;53703;50.326;19.122;2023-05-08T02:43:06;99708.00;;;18.95;34.94
66801;BME280;53703;50.326;19.122;2023-05-08T02:46:23;99706.89;;;18.97;34.61
66801;BME280;53703;50.326;19.122;2023-05-08T02:49:28;99707.23;;;18.96;34.53
66801;BME280;53703;50.326;19.122;2023-05-08T02:52:33;99707.54;;;18.98;34.63
66801;BME280;53703;50.326;19.122;2023-05-08T02:55:41;99706.94;;;19.02;34.53
66801;BME280;53703;50.326;19.122;2023-05-08T02:58:45;99702.75;;;19.07;34.85
66801;BME280;53703;50.326;19.122;2023-05-08T03:01:48;99706.13;;;18.98;34.93
66801;BME280;53703;50.326;19.122;2023-05-08T03:04:48;99705.40;;;19.02;34.71
66801;BME280;53703;50.326;19.122;2023-05-08T03:07:46;99707.08;;;18.98;34.72
66801;BME280;53703;50.326;19.122;2023-05-08T03:11:25;99709.73;;;18.88;34.46
66801;BME280;53703;50.326;19.122;2023-05-08T03:14:24;99706.48;;;18.99;34.72
66801;BME280;53703;50.326;19.122;2023-05-08T03:17:21;99708.47;;;19.05;34.91
66801;BME280;53703;50.326;19.122;2023-05-08T03:20:17;99714.41;;;19.13;34.73
66801;BME280;53703;50.326;19.122;2023-05-08T03:23:14;99713.25;;;19.11;34.74
66801;BME280;53703;50.326;19.122;2023-05-08T03:26:10;99717.79;;;19.08;34.69
66801;BME280;53703;50.326;19.122;2023-05-08T03:29:05;99717.43;;;19.05;34.79
66801;BME280;53703;50.326;19.122;2023-05-08T03:32:24;99717.83;;;19.03;35.08
66801;BME280;53703;50.326;19.122;2023-05-08T03:35:22;99719.41;;;19.09;34.89
66801;BME280;53703;50.326;19.122;2023-05-08T03:38:16;99726.71;;;19.14;35.40
66801;BME280;53703;50.326;19.122;2023-05-08T03:41:11;99723.34;;;19.03;34.87
66801;BME280;53703;50.326;19.122;2023-05-08T03:44:07;99720.95;;;19.04;34.95
66801;BME280;53703;50.326;19.122;2023-05-08T03:47:02;99727.96;;;18.93;35.28
66801;BME280;53703;50.326;19.122;2023-05-08T03:49:57;99729.55;;;18.92;34.95
66801;BME280;53703;50.326;19.122;2023-05-08T03:52:52;99728.82;;;18.98;34.99
66801;BME280;53703;50.326;19.122;2023-05-08T03:55:47;99731.67;;;18.93;34.94
66801;BME280;53703;50.326;19.122;2023-05-08T03:58:49;99730.00;;;18.95;34.89
66801;BME280;53703;50.326;19.122;2023-05-08T04:01:47;99731.45;;;18.84;34.59
66801;BME280;53703;50.326;19.122;2023-05-08T04:04:43;99729.66;;;18.88;34.82
66801;BME280;53703;50.326;19.122;2023-05-08T04:07:55;99732.45;;;18.94;34.61
66801;BME280;53703;50.326;19.122;2023-05-08T04:11:01;99731.19;;;18.89;34.65
66801;BME280;53703;50.326;19.122;2023-05-08T04:14:02;99735.11;;;18.81;34.45
66801;BME280;53703;50.326;19.122;2023-05-08T04:17:02;99731.84;;;18.89;34.53
66801;BME280;53703;50.326;19.122;2023-05-08T04:19:57;99735.71;;;18.86;34.47
66801;BME280;53703;50.326;19.122;2023-05-08T04:22:54;99731.09;;;18.86;34.14
66801;BME280;53703;50.326;19.122;2023-05-08T04:25:52;99743.41;;;18.81;33.93
66801;BME280;53703;50.326;19.122;2023-05-08T04:28:47;99751.98;;;18.84;34.12
66801;BME280;53703;50.326;19.122;2023-05-08T04:31:41;99753.77;;;18.90;34.29
66801;BME280;53703;50.326;19.122;2023-05-08T04:34:36;99760.91;;;18.76;34.29
66801;BME280;53703;50.326;19.122;2023-05-08T04:37:31;99764.48;;;18.88;34.23
66801;BME280;53703;50.326;19.122;2023-05-08T04:40:26;99765.59;;;18.84;34.26
66801;BME280;53703;50.326;19.122;2023-05-08T04:43:20;99771.62;;;18.79;34.33
66801;BME280;53703;50.326;19.122;2023-05-08T04:46:14;99776.35;;;18.71;34.24
66801;BME280;53703;50.326;19.122;2023-05-08T04:49:09;99775.75;;;18.83;34.55
66801;BME280;53703;50.326;19.122;2023-05-08T04:52:03;99784.49;;;18.84;34.75
66801;BME280;53703;50.326;19.122;2023-05-08T04:54:58;99788.86;;;18.83;34.65
66801;BME280;53703;50.326;19.122;2023-05-08T04:57:52;99794.71;;;18.81;34.52
66801;BME280;53703;50.326;19.122;2023-05-08T05:00:46;99797.36;;;18.82;34.61
66801;BME280;53703;50.326;19.122;2023-05-08T05:03:40;99800.58;;;18.78;34.23
66801;BME280;53703;50.326;19.122;2023-05-08T05:06:34;99800.23;;;18.68;34.26
66801;BME280;53703;50.326;19.122;2023-05-08T05:09:29;99805.16;;;18.76;34.45
66801;BME280;53703;50.326;19.122;2023-05-08T05:12:23;99813.48;;;18.77;34.51
66801;BME280;53703;50.326;19.122;2023-05-08T05:15:17;99812.81;;;18.71;33.71
66801;BME280;53703;50.326;19.122;2023-05-08T05:18:11;99815.64;;;18.67;34.49
66801;BME280;53703;50.326;19.122;2023-05-08T05:21:05;99817.27;;;18.68;34.53
66801;BME280;53703;50.326;19.122;2023-05-08T05:23:59;99817.46;;;18.69;34.44
66801;BME280;53703;50.326;19.122;2023-05-08T05:26:53;99817.23;;;18.69;34.27
66801;BME280;53703;50.326;19.122;2023-05-08T05:29:47;99822.90;;;18.65;34.16
66801;BME280;53703;50.326;19.122;2023-05-08T05:32:41;99824.05;;;18.69;34.10
66801;BME280;53703;50.326;19.122;2023-05-08T05:35:35;99824.00;;;18.67;34.38
66801;BME280;53703;50.326;19.122;2023-05-08T05:38:29;99831.15;;;18.64;34.40
66801;BME280;53703;50.326;19.122;2023-05-08T05:41:23;99829.98;;;18.66;34.32
66801;BME280;53703;50.326;19.122;2023-05-08T05:44:18;99836.23;;;18.63;33.86
66801;BME280;53703;50.326;19.122;2023-05-08T05:47:12;99840.08;;;18.76;34.09
66801;BME280;53703;50.326;19.122;2023-05-08T05:50:07;99845.15;;;18.70;33.98
66801;BME280;53703;50.326;19.122;2023-05-08T05:53:02;99846.64;;;18.69;34.20
66801;BME280;53703;50.326;19.122;2023-05-08T05:55:56;99849.80;;;18.63;34.24
66801;BME280;53703;50.326;19.122;2023-05-08T05:58:50;99851.39;;;18.63;34.16
66801;BME280;53703;50.326;19.122;2023-05-08T06:01:44;99860.16;;;18.59;33.89
66801;BME280;53703;50.326;19.122;2023-05-08T06:04:38;99861.92;;;18.60;34.09
66801;BME280;53703;50.326;19.122;2023-05-08T06:07:33;99869.59;;;18.58;33.97
66801;BME280;53703;50.326;19.122;2023-05-08T06:10:27;99874.84;;;18.50;33.86
66801;BME280;53703;50.326;19.122;2023-05-08T06:13:21;99876.38;;;18.53;33.69
66801;BME280;53703;50.326;19.122;2023-05-08T06:16:16;99879.98;;;18.49;33.62
66801;BME280;53703;50.326;19.122;2023-05-08T06:19:12;99882.52;;;18.71;33.44
66801;BME280;53703;50.326;19.122;2023-05-08T06:22:06;99880.14;;;18.64;33.55
66801;BME280;53703;50.326;19.122;2023-05-08T06:25:00;99885.25;;;18.67;33.43
66801;BME280;53703;50.326;19.122;2023-05-08T06:27:54;99884.73;;;18.57;33.67
66801;BME280;53703;50.326;19.122;2023-05-08T06:30:48;99885.40;;;18.33;33.58
66801;BME280;53703;50.326;19.122;2023-05-08T06:33:42;99884.23;;;18.38;33.90
66801;BME280;53703;50.326;19.122;2023-05-08T06:36:36;99888.03;;;18.43;33.69
66801;BME280;53703;50.326;19.122;2023-05-08T06:39:32;99892.55;;;18.51;33.88
66801;BME280;53703;50.326;19.122;2023-05-08T06:43:02;99897.69;;;18.51;33.62
66801;BME280;53703;50.326;19.122;2023-05-08T06:45:57;99889.95;;;18.49;33.71
66801;BME280;53703;50.326;19.122;2023-05-08T06:48:51;99891.96;;;18.53;33.62
66801;BME280;53703;50.326;19.122;2023-05-08T06:51:45;99887.77;;;18.51;33.54
66801;BME280;53703;50.326;19.122;2023-05-08T06:54:39;99889.56;;;18.36;33.48
66801;BME280;53703;50.326;19.122;2023-05-08T06:57:33;99892.74;;;18.50;33.37
66801;BME280;53703;50.326;19.122;2023-05-08T07:00:28;99888.27;;;18.61;33.08
66801;BME280;53703;50.326;19.122;2023-05-08T07:03:22;99889.59;;;18.51;33.15
66801;BME280;53703;50.326;19.122;2023-05-08T07:06:16;99889.23;;;18.58;33.44
66801;BME280;53703;50.326;19.122;2023-05-08T07:09:10;99892.94;;;18.62;33.47
66801;BME280;53703;50.326;19.122;2023-05-08T07:12:05;99891.58;;;18.69;33.04
66801;BME280;53703;50.326;19.122;2023-05-08T07:15:00;99894.95;;;18.72;33.15
66801;BME280;53703;50.326;19.122;2023-05-08T07:18:09;99897.06;;;18.65;33.03
66801;BME280;53703;50.326;19.122;2023-05-08T07:21:03;99904.23;;;18.71;33.24
66801;BME280;53703;50.326;19.122;2023-05-08T07:23:57;99908.15;;;18.69;33.29
66801;BME280;53703;50.326;19.122;2023-05-08T07:26:52;99912.12;;;18.81;33.19
66801;BME280;53703;50.326;19.122;2023-05-08T07:29:46;99905.81;;;19.02;33.06
66801;BME280;53703;50.326;19.122;2023-05-08T07:32:40;99907.63;;;18.93;33.85
66801;BME280;53703;50.326;19.122;2023-05-08T07:35:34;99907.59;;;18.89;34.03
66801;BME280;53703;50.326;19.122;2023-05-08T07:38:30;99904.67;;;19.02;33.92
66801;BME280;53703;50.326;19.122;2023-05-08T07:41:24;99906.38;;;19.03;34.02
66801;BME280;53703;50.326;19.122;2023-05-08T07:44:19;99905.05;;;19.21;33.51
66801;BME280;53703;50.326;19.122;2023-05-08T07:47:13;99906.98;;;19.04;33.18
66801;BME280;53703;50.326;19.122;2023-05-08T07:50:09;99905.65;;;19.04;33.50
66801;BME280;53703;50.326;19.122;2023-05-08T07:53:03;99908.23;;;19.08;33.13
66801;BME280;53703;50.326;19.122;2023-05-08T07:55:58;99909.62;;;18.99;33.13
66801;BME280;53703;50.326;19.122;2023-05-08T07:58:52;99914.51;;;19.16;33.40
66801;BME280;53703;50.326;19.122;2023-05-08T08:01:45;99915.45;;;19.23;32.98
66801;BME280;53703;50.326;19.122;2023-05-08T08:04:40;99913.63;;;19.07;32.75
66801;BME280;53703;50.326;19.122;2023-05-08T08:07:34;99914.42;;;18.88;32.88
66801;BME280;53703;50.326;19.122;2023-05-08T08:10:28;99910.67;;;19.13;32.77
66801;BME280;53703;50.326;19.122;2023-05-08T08:13:22;99909.26;;;18.89;32.53
66801;BME280;53703;50.326;19.122;2023-05-08T08:16:17;99912.23;;;19.09;32.53
66801;BME280;53703;50.326;19.122;2023-05-08T08:19:12;99909.70;;;19.18;32.67
66801;BME280;53703;50.326;19.122;2023-05-08T08:22:06;99906.56;;;19.17;32.69
66801;BME280;53703;50.326;19.122;2023-05-08T08:24:59;99903.04;;;19.20;33.18
66801;BME280;53703;50.326;19.122;2023-05-08T08:27:54;99904.41;;;19.17;32.87
66801;BME280;53703;50.326;19.122;2023-05-08T08:30:48;99909.28;;;19.39;32.72
66801;BME280;53703;50.326;19.122;2023-05-08T08:33:42;99908.80;;;19.47;32.02
66801;BME280;53703;50.326;19.122;2023-05-08T08:36:36;99906.11;;;19.23;32.62
66801;BME280;53703;50.326;19.122;2023-05-08T08:39:34;99905.67;;;19.28;32.42
66801;BME280;53703;50.326;19.122;2023-05-08T08:42:28;99905.29;;;19.28;32.24
66801;BME280;53703;50.326;19.122;2023-05-08T08:45:23;99907.56;;;19.27;32.19
66801;BME280;53703;50.326;19.122;2023-05-08T08:48:18;99904.73;;;19.17;32.71
66801;BME280;53703;50.326;19.122;2023-05-08T08:51:22;99910.52;;;19.39;33.15
66801;BME280;53703;50.326;19.122;2023-05-08T08:54:22;99905.77;;;19.30;34.03
66801;BME280;53703;50.326;19.122;2023-05-08T08:57:17;99911.05;;;19.53;33.05
66801;BME280;53703;50.326;19.122;2023-05-08T09:00:15;99912.90;;;19.50;33.13
66801;BME280;53703;50.326;19.122;2023-05-08T09:03:10;99913.83;;;19.68;31.81
66801;BME280;53703;50.326;19.122;2023-05-08T09:06:05;99911.57;;;19.65;31.76
66801;BME280;53703;50.326;19.122;2023-05-08T09:09:00;99917.91;;;19.51;32.67
66801;BME280;53703;50.326;19.122;2023-05-08T09:11:55;99919.04;;;19.42;31.34
66801;BME280;53703;50.326;19.122;2023-05-08T09:14:50;99915.18;;;19.37;32.52
66801;BME280;53703;50.326;19.122;2023-05-08T09:17:44;99912.73;;;19.55;32.27
66801;BME280;53703;50.326;19.122;2023-05-08T09:20:40;99915.77;;;19.52;31.85
66801;BME280;53703;50.326;19.122;2023-05-08T09:23:35;99909.42;;;19.47;32.02
66801;BME280;53703;50.326;19.122;2023-05-08T09:26:35;99914.59;;;19.64;32.47
66801;BME280;53703;50.326;19.122;2023-05-08T09:29:29;99907.60;;;19.71;31.34
66801;BME280;53703;50.326;19.122;2023-05-08T09:32:24;99910.41;;;19.68;32.35
66801;BME280;53703;50.326;19.122;2023-05-08T09:35:18;99913.16;;;19.75;32.86
66801;BME280;53703;50.326;19.122;2023-05-08T09:38:32;99907.29;;;19.71;32.46
66801;BME280;53703;50.326;19.122;2023-05-08T09:41:27;99904.86;;;19.66;32.26
66801;BME280;53703;50.326;19.122;2023-05-08T09:44:21;99903.52;;;19.80;32.42
66801;BME280;53703;50.326;19.122;2023-05-08T09:47:17;99900.90;;;19.90;31.57
66801;BME280;53703;50.326;19.122;2023-05-08T09:50:14;99903.02;;;19.69;32.35
66801;BME280;53703;50.326;19.122;2023-05-08T09:53:08;99904.32;;;19.72;32.86
66801;BME280;53703;50.326;19.122;2023-05-08T09:56:02;99899.05;;;19.65;33.14
66801;BME280;53703;50.326;19.122;2023-05-08T09:58:57;99900.70;;;19.80;32.31
66801;BME280;53703;50.326;19.122;2023-05-08T10:01:52;99901.40;;;19.95;31.91
66801;BME280;53703;50.326;19.122;2023-05-08T10:04:45;99902.20;;;19.67;33.45
66801;BME280;53703;50.326;19.122;2023-05-08T10:07:39;99904.95;;;19.31;42.87
66801;BME280;53703;50.326;19.122;2023-05-08T10:10:33;99899.63;;;18.40;39.63
66801;BME280;53703;50.326;19.122;2023-05-08T10:13:28;99899.60;;;17.23;36.43
66801;BME280;53703;50.326;19.122;2023-05-08T10:16:22;99897.10;;;18.39;34.59
66801;BME280;53703;50.326;19.122;2023-05-08T10:19:21;99893.34;;;18.94;33.62
66801;BME280;53703;50.326;19.122;2023-05-08T10:22:16;99898.24;;;19.29;33.55
66801;BME280;53703;50.326;19.122;2023-05-08T10:25:33;99895.96;;;19.50;33.86
66801;BME280;53703;50.326;19.122;2023-05-08T10:28:54;99893.55;;;19.53;33.42
66801;BME280;53703;50.326;19.122;2023-05-08T10:31:51;99896.16;;;19.47;32.63
66801;BME280;53703;50.326;19.122;2023-05-08T10:34:45;99904.31;;;19.46;32.91
66801;BME280;53703;50.326;19.122;2023-05-08T10:37:40;99896.29;;;19.50;32.67
66801;BME280;53703;50.326;19.122;2023-05-08T10:40:34;99898.85;;;19.66;32.39
66801;BME280;53703;50.326;19.122;2023-05-08T10:43:31;99899.87;;;19.64;32.90
66801;BME280;53703;50.326;19.122;2023-05-08T10:46:53;99893.96;;;19.78;33.08
66801;BME280;53703;50.326;19.122;2023-05-08T10:50:03;99891.38;;;19.90;33.27
66801;BME280;53703;50.326;19.122;2023-05-08T10:53:05;99889.85;;;19.80;32.75
66801;BME280;53703;50.326;19.122;2023-05-08T10:56:00;99884.30;;;19.72;32.34
66801;BME280;53703;50.326;19.122;2023-05-08T10:58:58;99889.20;;;19.78;32.44
66801;BME280;53703;50.326;19.122;2023-05-08T11:01:51;99887.02;;;19.69;32.63
66801;BME280;53703;50.326;19.122;2023-05-08T11:04:45;99886.23;;;19.69;32.30
66801;BME280;53703;50.326;19.122;2023-05-08T11:07:57;99881.88;;;19.55;32.05
66801;BME280;53703;50.326;19.122;2023-05-08T11:11:30;99880.63;;;19.71;32.33
66801;BME280;53703;50.326;19.122;2023-05-08T11:14:25;99881.39;;;19.65;32.38
66801;BME280;53703;50.326;19.122;2023-05-08T11:17:26;99883.14;;;19.69;32.17
66801;BME280;53703;50.326;19.122;2023-05-08T11:20:10;99878.77;;;19.72;32.14
66801;BME280;53703;50.326;19.122;2023-05-08T11:23:21;99883.82;;;19.72;32.60
66801;BME280;53703;50.326;19.122;2023-05-08T11:26:16;99879.03;;;19.71;32.37
66801;BME280;53703;50.326;19.122;2023-05-08T11:29:17;99877.86;;;19.75;31.82
66801;BME280;53703;50.326;19.122;2023-05-08T11:32:11;99875.91;;;19.70;31.89
66801;BME280;53703;50.326;19.122;2023-05-08T11:35:06;99874.73;;;19.97;32.03
66801;BME280;53703;50.326;19.122;2023-05-08T11:38:22;99881.80;;;19.86;32.83
66801;BME280;53703;50.326;19.122;2023-05-08T11:41:24;99879.33;;;19.92;32.19
66801;BME280;53703;50.326;19.122;2023-05-08T11:44:21;99877.95;;;19.89;32.42
66801;BME280;53703;50.326;19.122;2023-05-08T11:47:18;99874.00;;;19.85;32.21
66801;BME280;53703;50.326;19.122;2023-05-08T11:50:14;99870.86;;;19.84;32.19
66801;BME280;53703;50.326;19.122;2023-05-08T11:53:09;99866.80;;;19.81;32.32
66801;BME280;53703;50.326;19.122;2023-05-08T11:56:04;99873.60;;;19.83;31.74
66801;BME280;53703;50.326;19.122;2023-05-08T11:59:06;99874.92;;;19.17;30.95
66801;BME280;53703;50.326;19.122;2023-05-08T12:02:01;99877.82;;;18.40;31.92
66801;BME280;53703;50.326;19.122;2023-05-08T12:05:01;99872.39;;;18.31;31.91
66801;BME280;53703;50.326;19.122;2023-05-08T12:07:56;99865.72;;;18.56;31.36
66801;BME280;53703;50.326;19.122;2023-05-08T12:10:55;99867.41;;;18.61;30.37
66801;BME280;53703;50.326;19.122;2023-05-08T12:13:52;99870.85;;;18.74;30.25
66801;BME280;53703;50.326;19.122;2023-05-08T12:16:46;99860.80;;;19.25;31.24
66801;BME280;53703;50.326;19.122;2023-05-08T12:19:40;99867.73;;;19.50;31.18
66801;BME280;53703;50.326;19.122;2023-05-08T12:22:34;99870.48;;;19.50;31.53
66801;BME280;53703;50.326;19.122;2023-05-08T12:25:28;99870.70;;;19.84;30.92
66801;BME280;53703;50.326;19.122;2023-05-08T12:28:22;99869.01;;;20.00;29.89
66801;BME280;53703;50.326;19.122;2023-05-08T12:31:16;99872.16;;;19.59;30.87
66801;BME280;53703;50.326;19.122;2023-05-08T12:34:10;99871.64;;;19.68;30.96
66801;BME280;53703;50.326;19.122;2023-05-08T12:37:05;99872.98;;;19.70;30.75
66801;BME280;53703;50.326;19.122;2023-05-08T12:39:59;99866.09;;;19.74;30.77
66801;BME280;53703;50.326;19.122;2023-05-08T12:42:54;99864.34;;;19.77;30.72
66801;BME280;53703;50.326;19.122;2023-05-08T12:45:51;99868.98;;;19.81;31.24
66801;BME280;53703;50.326;19.122;2023-05-08T12:48:45;99867.16;;;19.73;31.14
66801;BME280;53703;50.326;19.122;2023-05-08T12:51:39;99858.02;;;19.85;31.45
66801;BME280;53703;50.326;19.122;2023-05-08T12:54:45;99856.23;;;19.79;31.10
66801;BME280;53703;50.326;19.122;2023-05-08T12:58:03;99857.52;;;19.79;31.73
66801;BME280;53703;50.326;19.122;2023-05-08T13:01:08;99851.34;;;19.86;31.94
66801;BME280;53703;50.326;19.122;2023-05-08T13:04:08;99851.23;;;19.70;31.37
66801;BME280;53703;50.326;19.122;2023-05-08T13:07:02;99851.34;;;19.24;30.39
66801;BME280;53703;50.326;19.122;2023-05-08T13:10:00;99843.95;;;18.69;30.25
66801;BME280;53703;50.326;19.122;2023-05-08T13:12:56;99848.16;;;19.74;30.83
66801;BME280;53703;50.326;19.122;2023-05-08T13:15:51;99843.11;;;19.65;33.83
66801;BME280;53703;50.326;19.122;2023-05-08T13:18:49;99849.20;;;19.63;34.61
66801;BME280;53703;50.326;19.122;2023-05-08T13:21:43;99853.25;;;19.56;36.03
66801;BME280;53703;50.326;19.122;2023-05-08T13:24:39;99849.52;;;19.59;36.91
66801;BME280;53703;50.326;19.122;2023-05-08T13:27:33;99853.87;;;19.65;35.50
66801;BME280;53703;50.326;19.122;2023-05-08T13:30:27;99854.95;;;19.62;34.58
66801;BME280;53703;50.326;19.122;2023-05-08T13:33:21;99848.39;;;19.63;33.70
66801;BME280;53703;50.326;19.122;2023-05-08T13:36:15;99848.96;;;19.61;33.05
66801;BME280;53703;50.326;19.122;2023-05-08T13:39:09;99847.92;;;19.60;32.89
66801;BME280;53703;50.326;19.122;2023-05-08T13:42:03;99843.78;;;19.64;33.00
66801;BME280;53703;50.326;19.122;2023-05-08T13:44:57;99853.40;;;19.75;33.70
66801;BME280;53703;50.326;19.122;2023-05-08T13:47:52;99845.01;;;19.73;32.41
66801;BME280;53703;50.326;19.122;2023-05-08T13:50:46;99848.24;;;19.71;32.22
66801;BME280;53703;50.326;19.122;2023-05-08T13:53:40;99849.52;;;19.82;31.78
66801;BME280;53703;50.326;19.122;2023-05-08T13:56:34;99846.17;;;19.86;33.07
66801;BME280;53703;50.326;19.122;2023-05-08T13:59:29;99848.01;;;19.84;32.89
66801;BME280;53703;50.326;19.122;2023-05-08T14:02:24;99843.20;;;19.75;33.25
66801;BME280;53703;50.326;19.122;2023-05-08T14:05:18;99844.06;;;19.79;33.58
66801;BME280;53703;50.326;19.122;2023-05-08T14:08:12;99839.36;;;19.80;33.67
66801;BME280;53703;50.326;19.122;2023-05-08T14:11:06;99830.52;;;19.92;33.62
66801;BME280;53703;50.326;19.122;2023-05-08T14:14:00;99830.59;;;20.00;30.33
66801;BME280;53703;50.326;19.122;2023-05-08T14:16:54;99825.39;;;19.73;30.15
66801;BME280;53703;50.326;19.122;2023-05-08T14:19:48;99829.74;;;19.77;33.32
66801;BME280;53703;50.326;19.122;2023-05-08T14:22:43;99827.56;;;19.82;34.51
66801;BME280;53703;50.326;19.122;2023-05-08T14:25:38;99824.67;;;19.73;34.14
66801;BME280;53703;50.326;19.122;2023-05-08T14:28:32;99827.05;;;19.81;34.64
66801;BME280;53703;50.326;19.122;2023-05-08T14:31:26;99832.86;;;19.76;33.74
66801;BME280;53703;50.326;19.122;2023-05-08T14:34:21;99832.91;;;19.75;33.92
66801;BME280;53703;50.326;19.122;2023-05-08T14:37:15;99825.96;;;19.81;33.77
66801;BME280;53703;50.326;19.122;2023-05-08T14:40:11;99829.84;;;19.83;34.35
66801;BME280;53703;50.326;19.122;2023-05-08T14:43:05;99830.02;;;19.76;33.69
66801;BME280;53703;50.326;19.122;2023-05-08T14:45:59;99833.02;;;19.78;31.99
66801;BME280;53703;50.326;19.122;2023-05-08T14:48:53;99836.52;;;19.70;31.59
66801;BME280;53703;50.326;19.122;2023-05-08T14:51:48;99835.96;;;19.74;31.04
66801;BME280;53703;50.326;19.122;2023-05-08T14:54:42;99838.67;;;19.81;33.15
66801;BME280;53703;50.326;19.122;2023-05-08T14:57:37;99840.20;;;19.89;33.02
66801;BME280;53703;50.326;19.122;2023-05-08T15:00:31;99838.27;;;20.09;32.52
66801;BME280;53703;50.326;19.122;2023-05-08T15:03:25;99842.89;;;19.62;34.86
66801;BME280;53703;50.326;19.122;2023-05-08T15:06:20;99838.06;;;19.79;37.16
66801;BME280;53703;50.326;19.122;2023-05-08T15:09:15;99838.33;;;19.87;35.61
66801;BME280;53703;50.326;19.122;2023-05-08T15:12:09;99835.58;;;19.86;34.75
66801;BME280;53703;50.326;19.122;2023-05-08T15:15:04;99836.81;;;19.89;34.33
66801;BME280;53703;50.326;19.122;2023-05-08T15:17:59;99836.28;;;19.92;33.47
66801;BME280;53703;50.326;19.122;2023-05-08T15:20:53;99832.70;;;19.91;33.54
66801;BME280;53703;50.326;19.122;2023-05-08T15:23:47;99830.41;;;20.01;33.37
66801;BME280;53703;50.326;19.122;2023-05-08T15:26:40;99831.41;;;20.06;32.82
66801;BME280;53703;50.326;19.122;2023-05-08T15:29:34;99833.64;;;19.98;32.83
66801;BME280;53703;50.326;19.122;2023-05-08T15:32:28;99833.77;;;19.84;31.60
66801;BME280;53703;50.326;19.122;2023-05-08T15:35:23;99829.41;;;19.69;30.95
66801;BME280;53703;50.326;19.122;2023-05-08T15:38:17;99825.63;;;19.77;31.78
66801;BME280;53703;50.326;19.122;2023-05-08T15:41:11;99824.15;;;19.85;32.18
66801;BME280;53703;50.326;19.122;2023-05-08T15:44:07;99820.82;;;19.95;31.93
66801;BME280;53703;50.326;19.122;2023-05-08T15:47:02;99820.66;;;19.95;32.24